Time;durP1;ratioP1;P1;durP2;ratioP2;P2;SDS_P1;SDS_P2;PMS_P1;PMS_P2;Temp;Humidity;BMP_temperature;BMP_pressure;BME280_temperature;BME280_humidity;BME280_pressure;Samples;Min_cycle;Max_cycle;Signal;HPM_P1;HPM_P2
2024/01/05 00:01:41;;;;;;;34.88;20.25;;;;;;;4.49;nan;100075.44;5011316;28;20022;-66
2024/01/05 00:04:07;;;;;;;35.30;20.35;;;;;;;4.42;nan;100066.78;5011951;28;20025;-66
2024/01/05 00:06:36;;;;;;;34.33;19.83;;;;;;;4.29;nan;100053.69;4994209;28;20037;-68
2024/01/05 00:09:05;;;;;;;35.15;20.50;;;;;;;4.44;nan;100081.22;5012399;28;20029;-66
2024/01/05 00:11:31;;;;;;;39.55;21.23;;;;;;;4.34;nan;100067.75;5011459;28;20137;-66
2024/01/05 00:13:57;;;;;;;34.70;20.00;;;;;;;4.24;nan;100070.69;5012735;28;20117;-67
2024/01/05 00:16:25;;;;;;;35.05;20.42;;;;;;;4.37;nan;100101.25;4992226;28;20026;-66
2024/01/05 00:18:51;;;;;;;33.10;19.02;;;;;;;4.38;nan;100108.09;5011843;28;20431;-65
2024/01/05 00:21:25;;;;;;;31.75;19.30;;;;;;;4.32;nan;100108.03;5012022;28;20080;-66
2024/01/05 00:23:55;;;;;;;33.75;19.33;;;;;;;4.35;nan;100113.66;5012012;28;20036;-68
2024/01/05 00:26:21;;;;;;;39.20;21.48;;;;;;;4.25;nan;100121.81;5011214;28;20026;-67
2024/01/05 00:28:48;;;;;;;37.40;20.95;;;;;;;4.22;nan;100121.41;5012717;28;20080;-66
2024/01/05 00:31:15;;;;;;;39.72;21.55;;;;;;;4.14;nan;100114.53;4993511;28;20372;-67
2024/01/05 00:33:40;;;;;;;42.17;21.70;;;;;;;4.15;nan;100117.94;5010450;28;20088;-67
2024/01/05 00:36:10;;;;;;;41.17;23.13;;;;;;;4.05;nan;100108.66;5009983;28;20025;-66
2024/01/05 00:38:41;;;;;;;43.83;22.65;;;;;;;4.07;nan;100123.28;5011440;28;20569;-66
2024/01/05 00:41:12;;;;;;;41.97;22.52;;;;;;;3.99;nan;100114.59;5012953;28;20033;-66
2024/01/05 00:43:44;;;;;;;36.50;21.35;;;;;;;4.01;nan;100127.47;5011293;28;20411;-66
2024/01/05 00:46:12;;;;;;;33.83;21.23;;;;;;;3.94;nan;100116.19;5012967;28;20026;-67
2024/01/05 00:48:37;;;;;;;36.80;21.08;;;;;;;3.93;nan;100128.41;5008763;28;20040;-67
2024/01/05 00:51:03;;;;;;;34.25;21.10;;;;;;;3.98;nan;100131.25;5011855;28;20113;-66
2024/01/05 00:53:29;;;;;;;37.30;20.17;;;;;;;3.96;nan;100135.84;5010595;28;20471;-67
2024/01/05 00:55:54;;;;;;;31.35;19.13;;;;;;;3.91;nan;100121.78;4993496;28;20029;-66
2024/01/05 00:58:19;;;;;;;39.45;19.88;;;;;;;3.90;nan;100128.75;4995181;28;20025;-66
2024/01/05 01:00:45;;;;;;;41.15;20.83;;;;;;;3.86;nan;100121.53;5010606;28;20112;-67
2024/01/05 01:03:10;;;;;;;35.42;20.75;;;;;;;3.74;nan;100116.81;5010530;28;20033;-66
2024/01/05 01:05:36;;;;;;;41.42;22.17;;;;;;;3.79;nan;100134.50;5010498;28;20451;-66
2024/01/05 01:08:01;;;;;;;42.40;22.55;;;;;;;3.74;nan;100134.25;5011825;28;20024;-67
2024/01/05 01:10:27;;;;;;;38.83;21.67;;;;;;;3.64;nan;100126.75;5010831;28;20033;-67
2024/01/05 01:12:52;;;;;;;39.90;21.95;;;;;;;3.61;nan;100134.91;4992191;28;20376;-67
2024/01/05 01:15:18;;;;;;;41.00;22.48;;;;;;;3.62;nan;100150.34;5008325;28;20030;-66
2024/01/05 01:17:43;;;;;;;41.78;22.35;;;;;;;3.60;nan;100139.31;5009664;28;20439;-66
2024/01/05 01:20:12;;;;;;;38.10;21.60;;;;;;;3.57;nan;100131.88;5011309;28;20116;-67
2024/01/05 01:22:40;;;;;;;35.05;20.02;;;;;;;3.53;nan;100133.25;5008118;28;20065;-67
2024/01/05 01:25:06;;;;;;;40.38;20.63;;;;;;;3.43;nan;100132.75;5010658;28;20025;-67
2024/01/05 01:27:32;;;;;;;35.40;20.00;;;;;;;3.39;nan;100145.31;4993446;28;20072;-67
2024/01/05 01:30:00;;;;;;;37.65;20.40;;;;;;;3.35;nan;100153.66;5010544;28;20720;-67
2024/01/05 01:32:25;;;;;;;38.60;21.23;;;;;;;3.28;nan;100147.56;5010606;28;20474;-66
2024/01/05 01:34:51;;;;;;;36.78;19.60;;;;;;;3.28;nan;100164.03;5010400;28;20112;-66
2024/01/05 01:37:19;;;;;;;36.25;20.73;;;;;;;3.20;nan;100138.88;4993214;28;20036;-66
2024/01/05 01:39:45;;;;;;;39.93;21.87;;;;;;;3.22;nan;100153.53;5009915;28;20026;-66
2024/01/05 01:42:13;;;;;;;33.78;21.10;;;;;;;3.24;nan;100173.16;5010393;28;20030;-66
2024/01/05 01:44:38;;;;;;;40.40;21.40;;;;;;;3.03;nan;100139.28;5009771;28;20088;-66
2024/01/05 01:47:07;;;;;;;40.08;21.15;;;;;;;3.19;nan;100155.50;5009359;28;20037;-66
2024/01/05 01:49:33;;;;;;;37.08;19.92;;;;;;;3.17;nan;100172.28;5009175;28;20025;-66
2024/01/05 01:52:02;;;;;;;37.53;19.70;;;;;;;3.16;nan;100179.28;4989685;28;20092;-66
2024/01/05 01:54:32;;;;;;;36.35;20.95;;;;;;;3.14;nan;100173.47;5010677;28;20132;-66
2024/01/05 01:57:07;;;;;;;39.70;20.23;;;;;;;3.13;nan;100178.84;5007400;28;20463;-66
2024/01/05 01:59:33;;;;;;;43.08;22.02;;;;;;;3.05;nan;100177.13;5010141;28;20597;-66
2024/01/05 02:01:59;;;;;;;36.85;20.20;;;;;;;2.93;nan;100187.19;5010354;28;20029;-66
2024/01/05 02:04:26;;;;;;;39.33;20.10;;;;;;;2.94;nan;100185.38;5010755;28;20109;-66
2024/01/05 02:06:52;;;;;;;38.15;20.95;;;;;;;2.93;nan;100182.00;4992130;28;20066;-67
2024/01/05 02:09:20;;;;;;;40.38;20.67;;;;;;;2.95;nan;100194.81;5009558;28;20022;-65
2024/01/05 02:11:45;;;;;;;39.17;20.13;;;;;;;2.92;nan;100187.34;5009222;28;20349;-67
2024/01/05 02:14:14;;;;;;;40.92;20.02;;;;;;;2.94;nan;100191.41;5007854;28;20095;-66
2024/01/05 02:16:41;;;;;;;40.83;21.83;;;;;;;2.90;nan;100190.16;5008490;28;20033;-66
2024/01/05 02:19:06;;;;;;;40.60;22.52;;;;;;;2.94;nan;100193.19;5008941;28;20492;-67
2024/01/05 02:21:41;;;;;;;40.83;21.95;;;;;;;2.94;nan;100193.19;5010039;28;20088;-67
2024/01/05 02:24:07;;;;;;;42.83;21.30;;;;;;;2.98;nan;100200.47;5007884;28;20030;-67
2024/01/05 02:26:32;;;;;;;39.33;21.48;;;;;;;2.97;nan;100191.06;5008190;28;20408;-66
2024/01/05 02:29:21;;;;;;;40.85;21.92;;;;;;;3.00;nan;100197.69;5010430;28;20018;-67
2024/01/05 02:31:50;;;;;;;45.72;21.27;;;;;;;3.01;nan;100198.50;4988424;28;20037;-67
2024/01/05 02:34:15;;;;;;;40.40;21.87;;;;;;;2.97;nan;100198.84;5007860;28;20108;-66
2024/01/05 02:36:41;;;;;;;43.05;22.58;;;;;;;3.00;nan;100202.88;5009086;28;20121;-67
2024/01/05 02:39:13;;;;;;;40.17;21.63;;;;;;;2.96;nan;100209.44;5008124;28;20224;-66
2024/01/05 02:41:38;;;;;;;40.90;20.27;;;;;;;2.87;nan;100200.91;5007139;28;20129;-66
2024/01/05 02:44:04;;;;;;;35.33;20.13;;;;;;;2.92;nan;100206.41;5009024;28;20112;-66
2024/01/05 02:46:35;;;;;;;36.70;21.02;;;;;;;2.84;nan;100203.06;4991680;28;20025;-66
2024/01/05 02:49:00;;;;;;;39.42;20.60;;;;;;;2.65;nan;100184.41;4989873;28;20136;-66
2024/01/05 02:51:26;;;;;;;38.15;20.48;;;;;;;2.57;nan;100165.50;4988907;28;20144;-65
2024/01/05 02:53:52;;;;;;;36.20;20.77;;;;;;;2.72;nan;100200.09;5008964;28;20368;-65
2024/01/05 02:56:24;;;;;;;36.55;20.80;;;;;;;2.66;nan;100200.78;5008961;28;20033;-67
2024/01/05 02:58:53;;;;;;;34.40;20.50;;;;;;;2.64;nan;100208.78;5007885;28;20034;-66
2024/01/05 03:01:27;;;;;;;37.83;19.83;;;;;;;2.64;nan;100203.59;4991670;28;20457;-65
2024/01/05 03:03:53;;;;;;;36.97;19.98;;;;;;;2.64;nan;100206.19;5008412;28;20029;-67
2024/01/05 03:06:24;;;;;;;35.60;19.10;;;;;;;2.65;nan;100204.41;4989238;28;20447;-66
2024/01/05 03:08:49;;;;;;;34.00;19.17;;;;;;;2.65;nan;100196.59;5009055;28;20108;-67
2024/01/05 03:11:15;;;;;;;34.22;18.65;;;;;;;2.60;nan;100181.53;5009460;28;20556;-67
2024/01/05 03:13:43;;;;;;;35.50;18.70;;;;;;;2.62;nan;100183.97;5008620;28;20555;-66
2024/01/05 03:16:08;;;;;;;35.35;18.77;;;;;;;2.41;nan;100169.06;5009018;28;20080;-67
2024/01/05 03:18:34;;;;;;;31.25;18.25;;;;;;;2.51;nan;100199.00;5009601;28;20037;-66
2024/01/05 03:20:59;;;;;;;31.95;18.02;;;;;;;2.51;nan;100201.63;5011676;28;20905;-65
2024/01/05 03:23:25;;;;;;;32.10;18.15;;;;;;;2.50;nan;100205.19;5011047;28;20034;-66
2024/01/05 03:25:50;;;;;;;31.95;17.85;;;;;;;2.52;nan;100210.22;5012858;28;20121;-66
2024/01/05 03:28:17;;;;;;;32.25;17.58;;;;;;;2.50;nan;100212.19;5013356;28;20444;-65
2024/01/05 03:30:42;;;;;;;30.85;17.05;;;;;;;2.51;nan;100205.97;5011797;28;20104;-66
2024/01/05 03:33:09;;;;;;;30.88;17.77;;;;;;;2.50;nan;100212.97;5012625;28;20116;-67
2024/01/05 03:35:36;;;;;;;34.05;19.25;;;;;;;2.45;nan;100204.91;5012247;28;20542;-66
2024/01/05 03:38:05;;;;;;;35.13;18.77;;;;;;;2.45;nan;100210.09;4994799;28;20108;-67
2024/01/05 03:40:33;;;;;;;33.93;19.17;;;;;;;2.36;nan;100210.34;5011324;28;20026;-66
2024/01/05 03:42:59;;;;;;;33.97;19.23;;;;;;;2.27;nan;100230.38;4995307;28;20120;-66
2024/01/05 03:45:24;;;;;;;53.15;25.33;;;;;;;2.23;nan;100227.34;5012376;28;20417;-67
2024/01/05 03:47:52;;;;;;;68.13;29.45;;;;;;;2.21;nan;100225.91;5010057;28;20108;-66
2024/01/05 03:50:21;;;;;;;52.58;25.17;;;;;;;2.06;nan;100210.25;5011512;28;20080;-66
2024/01/05 03:52:49;;;;;;;68.95;24.95;;;;;;;2.04;nan;100207.03;5011271;28;20056;-66
2024/01/05 03:55:15;;;;;;;40.40;22.08;;;;;;;2.03;nan;100223.59;5012215;28;20040;-65
2024/01/05 03:57:40;;;;;;;35.75;20.45;;;;;;;1.99;nan;100237.88;5010207;28;20026;-66
2024/01/05 04:00:07;;;;;;;37.50;20.65;;;;;;;1.96;nan;100225.25;5012259;28;20069;-66
2024/01/05 04:02:33;;;;;;;41.38;22.17;;;;;;;1.99;nan;100243.91;5012579;28;20497;-66
2024/01/05 04:05:01;;;;;;;39.42;20.65;;;;;;;1.92;nan;100233.41;5011296;28;20029;-66
2024/01/05 04:07:26;;;;;;;38.53;21.05;;;;;;;1.92;nan;100236.00;5011813;28;20036;-66
2024/01/05 04:09:52;;;;;;;43.45;23.48;;;;;;;1.93;nan;100244.59;4994471;28;20384;-66
2024/01/05 04:12:17;;;;;;;38.83;20.95;;;;;;;1.95;nan;100260.00;4994313;28;20026;-66
2024/01/05 04:14:44;;;;;;;39.30;21.27;;;;;;;1.91;nan;100255.13;4993836;28;20030;-67
2024/01/05 04:17:12;;;;;;;38.47;20.67;;;;;;;1.91;nan;100265.53;5010489;28;20040;-67
2024/01/05 04:19:38;;;;;;;35.00;20.00;;;;;;;1.84;nan;100254.22;5011481;28;20136;-66
2024/01/05 04:22:05;;;;;;;36.67;20.35;;;;;;;1.83;nan;100265.59;5010249;28;20845;-68
2024/01/05 04:24:31;;;;;;;38.42;20.10;;;;;;;1.85;nan;100278.41;4993722;28;20083;-66
2024/01/05 04:26:56;;;;;;;52.53;20.30;;;;;;;1.80;nan;100284.09;5011644;28;20371;-67
2024/01/05 04:29:22;;;;;;;47.25;18.63;;;;;;;1.59;nan;100284.69;5011617;28;20021;-66
2024/01/05 04:31:47;;;;;;;36.42;18.17;;;;;;;1.42;nan;100281.34;5009678;28;20036;-66
2024/01/05 04:34:13;;;;;;;36.60;18.15;;;;;;;1.36;nan;100276.00;5011723;28;20499;-67
2024/01/05 04:36:39;;;;;;;36.03;19.42;;;;;;;;;;5011191;28;20108;-67
2024/01/05 04:39:05;;;;;;;38.08;18.38;;;;;;;1.42;nan;100280.53;5011020;28;20106;-66
2024/01/05 04:41:33;;;;;;;39.53;19.90;;;;;;;1.31;nan;100270.53;5011024;28;20022;-66
2024/01/05 04:43:59;;;;;;;49.13;19.98;;;;;;;1.30;nan;100285.28;5009643;28;20466;-67
2024/01/05 04:46:27;;;;;;;48.92;18.02;;;;;;;1.10;nan;100278.84;5011263;28;20022;-65
2024/01/05 04:48:53;;;;;;;42.78;18.60;;;;;;;1.14;nan;100301.69;5009365;28;20032;-66
2024/01/05 04:51:18;;;;;;;37.92;19.13;;;;;;;1.12;nan;100293.25;5010166;28;20022;-67
2024/01/05 04:53:44;;;;;;;41.30;19.08;;;;;;;1.14;nan;100287.91;5010688;28;20022;-66
2024/01/05 04:56:09;;;;;;;36.90;18.83;;;;;;;1.10;nan;100284.84;5010029;28;20086;-68
2024/01/05 04:58:37;;;;;;;42.97;20.90;;;;;;;1.08;nan;100280.78;5010894;28;20116;-65
2024/01/05 05:01:03;;;;;;;39.20;19.75;;;;;;;1.08;nan;100280.78;5009833;28;20026;-66
2024/01/05 05:03:30;;;;;;;37.88;20.50;;;;;;;1.12;nan;100289.88;5007107;28;20038;-66
2024/01/05 05:05:55;;;;;;;44.72;22.83;;;;;;;1.17;nan;100303.13;5009495;28;20026;-66
2024/01/05 05:08:21;;;;;;;43.42;22.20;;;;;;;;;;5010837;28;20033;-66
2024/01/05 05:10:52;;;;;;;44.95;21.65;;;;;;;;;;5010541;28;20041;-65
2024/01/05 05:13:18;;;;;;;1999.90;561.58;;;;;;;1.15;nan;100255.81;5010720;28;20040;-68
2024/01/05 05:15:43;;;;;;;67.15;33.60;;;;;;;1.81;nan;100285.72;4992310;28;20030;-66
2024/01/05 05:18:09;;;;;;;71.25;33.17;;;;;;;1.78;nan;100264.50;5011002;28;20033;-67
2024/01/05 05:20:37;;;;;;;57.53;27.17;;;;;;;1.81;nan;100275.31;5009771;28;20024;-65
2024/01/05 05:23:03;;;;;;;50.53;24.40;;;;;;;1.73;nan;100264.19;5011335;28;20105;-67
2024/01/05 05:25:28;;;;;;;44.90;21.83;;;;;;;1.67;nan;100281.25;5010458;28;20610;-66
2024/01/05 05:27:54;;;;;;;44.92;21.27;;;;;;;1.62;nan;100283.53;5010215;28;20029;-67
2024/01/05 05:30:19;;;;;;;42.22;20.73;;;;;;;1.52;nan;100267.38;5009504;28;20026;-67
2024/01/05 05:32:45;;;;;;;40.00;20.00;;;;;;;1.51;nan;100273.53;5010287;28;20105;-66
2024/01/05 05:35:13;;;;;;;41.67;21.33;;;;;;;1.44;nan;100273.41;5010537;28;20084;-66
2024/01/05 05:37:38;;;;;;;46.67;20.35;;;;;;;1.46;nan;100276.63;5010811;28;20034;-66
2024/01/05 05:40:04;;;;;;;42.95;19.63;;;;;;;1.41;nan;100276.31;5012687;28;21172;-66
2024/01/05 05:42:30;;;;;;;44.47;20.80;;;;;;;1.35;nan;100277.00;5009005;28;20033;-66
2024/01/05 05:44:55;;;;;;;42.15;19.67;;;;;;;1.30;nan;100276.69;5009356;28;20022;-66
2024/01/05 05:47:21;;;;;;;37.47;19.20;;;;;;;1.24;nan;100288.53;5010008;28;20415;-68
2024/01/05 05:49:46;;;;;;;44.00;20.15;;;;;;;1.17;nan;100272.03;5008772;28;20050;-66
2024/01/05 05:52:12;;;;;;;44.35;21.38;;;;;;;1.14;nan;100280.13;5011640;28;20052;-65
2024/01/05 05:54:37;;;;;;;41.17;21.02;;;;;;;1.19;nan;100283.03;5009459;28;20025;-65
2024/01/05 05:57:05;;;;;;;37.03;19.17;;;;;;;1.10;nan;100277.06;5010963;28;20113;-66
2024/01/05 05:59:31;;;;;;;37.10;18.88;;;;;;;1.05;nan;100272.41;5008851;28;20108;-67
2024/01/05 06:01:56;;;;;;;40.50;19.50;;;;;;;1.11;nan;100277.88;5009806;28;20120;-67
2024/01/05 06:04:21;;;;;;;38.08;18.23;;;;;;;1.06;nan;100266.22;5009919;28;20036;-66
2024/01/05 06:06:47;;;;;;;42.80;19.98;;;;;;;1.10;nan;100273.66;5010480;28;20045;-67
2024/01/05 06:09:14;;;;;;;45.00;19.20;;;;;;;1.16;nan;100286.78;5010886;28;20029;-66
2024/01/05 06:11:40;;;;;;;38.92;18.92;;;;;;;1.11;nan;100283.06;4993294;28;20040;-66
2024/01/05 06:14:05;;;;;;;47.83;18.48;;;;;;;1.01;nan;100272.88;5010181;28;20388;-67
2024/01/05 06:16:31;;;;;;;37.45;17.80;;;;;;;0.96;nan;100275.97;5011030;28;20034;-66
2024/01/05 06:19:02;;;;;;;38.50;17.50;;;;;;;0.93;nan;100278.06;4986353;28;20029;-65
2024/01/05 06:21:27;;;;;;;73.10;19.38;;;;;;;0.90;nan;100292.19;5006738;28;20045;-66
2024/01/05 06:23:53;;;;;;;42.55;17.55;;;;;;;0.56;nan;100258.69;5008660;28;20515;-66
2024/01/05 06:26:19;;;;;;;41.60;17.80;;;;;;;0.69;nan;100289.28;5012490;28;20109;-67
2024/01/05 06:28:45;;;;;;;38.58;18.48;;;;;;;0.63;nan;100286.38;5008331;28;20029;-67
2024/01/05 06:31:10;;;;;;;44.47;18.15;;;;;;;0.60;nan;100296.25;5009139;28;20496;-66
2024/01/05 06:33:35;;;;;;;36.97;19.38;;;;;;;0.62;nan;100300.31;5008244;28;20103;-66
2024/01/05 06:36:01;;;;;;;34.50;17.88;;;;;;;0.52;nan;100286.69;5007844;28;20029;-67
2024/01/05 06:38:26;;;;;;;36.17;18.98;;;;;;;0.66;nan;100298.19;5009724;28;20029;-68
2024/01/05 06:40:52;;;;;;;41.67;19.58;;;;;;;0.65;nan;100296.59;5009499;28;20033;-66
2024/01/05 06:43:17;;;;;;;40.03;19.98;;;;;;;0.69;nan;100304.81;5006457;28;20038;-66
2024/01/05 06:45:43;;;;;;;40.15;21.42;;;;;;;0.72;nan;100307.91;5010326;28;20072;-67
2024/01/05 06:48:08;;;;;;;45.85;21.65;;;;;;;0.68;nan;100304.03;5010165;28;20022;-67
2024/01/05 06:50:33;;;;;;;49.50;22.48;;;;;;;0.74;nan;100308.56;5008986;28;20096;-68
2024/01/05 06:52:59;;;;;;;49.83;22.55;;;;;;;0.71;nan;100297.72;5010652;28;20551;-67
2024/01/05 06:55:24;;;;;;;48.92;22.23;;;;;;;0.75;nan;100288.63;5007790;28;20120;-68
2024/01/05 06:57:50;;;;;;;49.28;22.70;;;;;;;0.81;nan;100288.81;4992148;28;20117;-68
2024/01/05 07:00:16;;;;;;;46.15;23.15;;;;;;;0.89;nan;100276.78;5008276;28;20100;-67
2024/01/05 07:02:41;;;;;;;48.97;24.67;;;;;;;0.90;nan;100266.25;5005554;28;20480;-69
2024/01/05 07:05:07;;;;;;;43.72;23.90;;;;;;;0.85;nan;100253.78;5007166;28;20495;-71
2024/01/05 07:07:32;;;;;;;51.10;25.50;;;;;;;0.76;nan;100241.81;5006273;28;20033;-70
2024/01/05 07:09:58;;;;;;;59.38;27.33;;;;;;;0.87;nan;100248.44;5009254;28;20030;-71
2024/01/05 07:12:24;;;;;;;52.67;25.98;;;;;;;0.84;nan;100235.81;5005201;28;20066;-71
2024/01/05 07:14:49;;;;;;;57.50;27.27;;;;;;;0.90;nan;100236.94;5008965;28;20041;-71
2024/01/05 07:17:15;;;;;;;55.22;26.52;;;;;;;;;;5008743;28;20063;-71
2024/01/05 07:19:40;;;;;;;56.20;27.15;;;;;;;1.09;nan;100249.50;5010630;28;20548;-70
2024/01/05 07:22:06;;;;;;;62.55;28.65;;;;;;;1.17;nan;100246.88;5007601;28;20073;-70
2024/01/05 07:24:35;;;;;;;60.03;29.20;;;;;;;1.24;nan;100240.06;5010894;28;20105;-70
2024/01/05 07:27:00;;;;;;;64.18;29.88;;;;;;;1.29;nan;100244.75;5009035;28;20017;-70
2024/01/05 07:29:26;;;;;;;68.25;30.00;;;;;;;1.39;nan;100245.38;5010406;28;20018;-70
2024/01/05 07:31:51;;;;;;;69.28;33.08;;;;;;;1.22;nan;100191.91;5010801;28;20060;-70
2024/01/05 07:34:17;;;;;;;70.05;33.40;;;;;;;1.56;nan;100234.91;5004689;28;20164;-70
2024/01/05 07:36:43;;;;;;;71.07;33.00;;;;;;;1.69;nan;100246.34;5008830;28;20864;-71
2024/01/05 07:39:12;;;;;;;70.47;32.78;;;;;;;1.70;nan;100231.59;5009364;28;20037;-70
2024/01/05 07:41:38;;;;;;;65.07;32.47;;;;;;;1.88;nan;100252.91;5007932;28;20034;-71
2024/01/05 07:44:04;;;;;;;70.30;33.75;;;;;;;;;;5008931;28;20121;-70
2024/01/05 07:46:30;;;;;;;72.00;33.95;;;;;;;;;;5008208;28;20097;-70
2024/01/05 07:48:55;;;;;;;71.82;33.35;;;;;;;2.17;nan;100209.84;5008734;28;20029;-70
2024/01/05 07:51:21;;;;;;;68.32;31.30;;;;;;;;;;5007728;28;20022;-70
2024/01/05 07:53:50;;;;;;;71.45;32.10;;;;;;;2.35;nan;100222.53;5008134;28;20032;-70
2024/01/05 07:56:19;;;;;;;66.47;32.53;;;;;;;2.47;nan;100218.53;5006861;28;20076;-69
2024/01/05 07:58:44;;;;;;;71.43;32.83;;;;;;;;;;5007855;28;20030;-70
2024/01/05 08:01:17;;;;;;;74.43;35.85;;;;;;;2.70;nan;100231.47;5007620;28;20037;-70
2024/01/05 08:03:46;;;;;;;77.85;37.08;;;;;;;2.70;nan;100215.88;5007054;28;20033;-68
2024/01/05 08:06:16;;;;;;;83.05;40.17;;;;;;;2.89;nan;100229.34;5008060;28;20025;-70
2024/01/05 08:08:49;;;;;;;78.57;37.13;;;;;;;2.94;nan;100221.81;5009572;28;20033;-69
2024/01/05 08:11:16;;;;;;;75.18;36.30;;;;;;;2.98;nan;100223.88;5004406;28;20448;-69
2024/01/05 08:13:42;;;;;;;80.13;37.40;;;;;;;2.94;nan;100198.41;5012067;28;20660;-73
2024/01/05 08:16:08;;;;;;;84.13;37.45;;;;;;;3.14;nan;100224.69;5009611;28;20080;-69
2024/01/05 08:18:35;;;;;;;68.45;35.05;;;;;;;3.11;nan;100209.41;5013151;28;20026;-69
2024/01/05 08:21:00;;;;;;;66.20;34.28;;;;;;;3.22;nan;100226.38;5012192;28;20096;-68
2024/01/05 08:23:26;;;;;;;67.90;33.60;;;;;;;3.25;nan;100216.41;5012083;28;20029;-68
2024/01/05 08:25:51;;;;;;;62.92;32.92;;;;;;;3.38;nan;100223.59;5013528;28;20022;-72
2024/01/05 08:28:17;;;;;;;65.70;32.65;;;;;;;3.44;nan;100222.84;5012366;28;20029;-72
2024/01/05 08:30:42;;;;;;;64.38;31.35;;;;;;;3.33;nan;100197.31;5014981;28;20037;-73
2024/01/05 08:33:08;;;;;;;58.80;31.20;;;;;;;3.60;nan;100225.25;5014910;28;20360;-70
2024/01/05 08:35:34;;;;;;;59.53;29.40;;;;;;;;;;5011820;28;20021;-73
2024/01/05 08:37:59;;;;;;;58.13;29.35;;;;;;;;;;5012695;28;20441;-70
2024/01/05 08:40:26;;;;;;;59.27;29.83;;;;;;;;;;5011984;28;20050;-69
2024/01/05 08:42:52;;;;;;;59.70;31.88;;;;;;;;;;4996750;28;20362;-69
2024/01/05 08:45:19;;;;;;;62.08;32.30;;;;;;;;;;4993005;28;20088;-69
2024/01/05 08:47:44;;;;;;;63.38;32.65;;;;;;;;;;5007967;28;20018;-70
2024/01/05 08:50:10;;;;;;;60.58;32.53;;;;;;;;;;4990524;28;20056;-70
2024/01/05 08:52:35;;;;;;;67.80;32.60;;;;;;;;;;5011688;28;20468;-68
2024/01/05 08:55:00;;;;;;;59.33;30.33;;;;;;;;;;5010662;28;20527;-71
2024/01/05 08:57:26;;;;;;;55.60;29.98;;;;;;;;;;5012113;28;20279;-69
2024/01/05 08:59:52;;;;;;;61.60;29.38;;;;;;;;;;5012952;28;20427;-74
2024/01/05 09:02:17;;;;;;;55.05;29.40;;;;;;;;;;5010518;28;20033;-73
2024/01/05 09:04:43;;;;;;;47.97;25.67;;;;;;;;;;5011634;28;20033;-75
2024/01/05 09:07:08;;;;;;;45.63;24.40;;;;;;;;;;5012450;28;20036;-74
2024/01/05 09:09:33;;;;;;;48.38;25.67;;;;;;;;;;5010912;28;20026;-73
2024/01/05 09:11:59;;;;;;;41.43;23.20;;;;;;;;;;5011170;28;20036;-73
2024/01/05 09:14:24;;;;;;;43.25;22.85;;;;;;;;;;5010069;28;20275;-74
2024/01/05 09:16:49;;;;;;;42.30;22.07;;;;;;;5.25;nan;100181.56;4994595;28;20061;-74
2024/01/05 09:19:15;;;;;;;38.40;22.23;;;;;;;;;;5011421;28;20271;-73
2024/01/05 09:21:40;;;;;;;36.55;20.15;;;;;;;;;;4992689;28;20049;-74
2024/01/05 09:24:06;;;;;;;37.10;20.55;;;;;;;5.45;nan;100212.94;5010907;28;20915;-74
2024/01/05 09:26:31;;;;;;;36.55;19.65;;;;;;;5.60;nan;100212.78;5012606;28;20109;-74
2024/01/05 09:28:57;;;;;;;35.72;20.83;;;;;;;5.66;nan;100218.03;5011503;28;20471;-74
2024/01/05 09:31:23;;;;;;;35.55;19.23;;;;;;;5.71;nan;100204.38;5008170;28;20026;-74
2024/01/05 09:33:49;;;;;;;31.00;18.55;;;;;;;5.83;nan;100217.69;5010832;28;20064;-74
2024/01/05 09:36:16;;;;;;;32.97;19.50;;;;;;;5.93;nan;100221.50;5012466;28;20030;-74
2024/01/05 09:38:41;;;;;;;33.78;19.20;;;;;;;5.86;nan;100189.34;4991283;28;20063;-73
2024/01/05 09:41:13;;;;;;;32.80;18.88;;;;;;;5.99;nan;100187.78;5011869;28;20021;-74
2024/01/05 09:43:40;;;;;;;30.67;17.52;;;;;;;;;;5011361;28;20076;-73
2024/01/05 09:46:07;;;;;;;29.88;17.55;;;;;;;6.28;nan;100197.84;4998348;28;20437;-73
2024/01/05 09:48:33;;;;;;;31.08;16.73;;;;;;;6.47;nan;100217.16;5011176;28;20022;-69
2024/01/05 09:50:59;;;;;;;32.03;15.90;;;;;;;6.58;nan;100205.25;5010559;28;20022;-72
2024/01/05 09:53:25;;;;;;;27.02;15.40;;;;;;;6.72;nan;100214.72;5010289;28;20116;-73
2024/01/05 09:55:50;;;;;;;30.40;15.63;;;;;;;6.86;nan;100228.59;5011361;28;20160;-73
2024/01/05 09:58:17;;;;;;;26.50;13.38;;;;;;;6.97;nan;100217.50;5011903;28;20041;-73
2024/01/05 10:00:52;;;;;;;23.08;12.43;;;;;;;7.16;nan;100231.53;4998682;28;20117;-70
2024/01/05 10:03:25;;;;;;;21.45;13.35;;;;;;;7.31;nan;100233.09;4991598;28;20034;-70
2024/01/05 10:05:53;;;;;;;21.27;13.25;;;;;;;7.45;nan;100217.13;5009559;28;20104;-69
2024/01/05 10:08:22;;;;;;;21.92;11.45;;;;;;;7.56;nan;100206.97;4991865;28;20022;-70
2024/01/05 10:10:57;;;;;;;19.70;10.77;;;;;;;7.76;nan;100206.88;4992227;28;20058;-69
2024/01/05 10:13:23;;;;;;;17.00;10.45;;;;;;;7.80;nan;100194.94;5009487;28;20113;-70
2024/01/05 10:15:55;;;;;;;18.83;10.55;;;;;;;8.03;nan;100204.88;4992053;28;20021;-70
2024/01/05 10:18:22;;;;;;;20.52;10.45;;;;;;;8.16;nan;100196.13;5009097;28;20026;-70
2024/01/05 10:20:48;;;;;;;19.05;9.02;;;;;;;8.29;nan;100198.66;5010453;28;20089;-69
2024/01/05 10:23:16;;;;;;;20.58;9.85;;;;;;;8.40;nan;100200.56;5008903;28;20453;-70
2024/01/05 10:25:41;;;;;;;17.55;9.07;;;;;;;8.45;nan;100195.50;4991415;28;20026;-70
2024/01/05 10:28:23;;;;;;;15.18;8.25;;;;;;;8.48;nan;100181.16;4988703;28;20395;-70
2024/01/05 10:30:49;;;;;;;12.27;7.57;;;;;;;8.59;nan;100182.25;5009490;28;20021;-69
2024/01/05 10:33:16;;;;;;;15.05;7.20;;;;;;;8.70;nan;100189.41;5011907;28;20136;-70
2024/01/05 10:35:42;;;;;;;13.15;7.47;;;;;;;8.71;nan;100181.34;5009703;28;20076;-68
2024/01/05 10:38:12;;;;;;;14.25;7.05;;;;;;;8.84;nan;100195.34;5009536;28;20026;-73
2024/01/05 10:40:38;;;;;;;12.98;6.75;;;;;;;8.84;nan;100184.84;5007941;28;20053;-72
2024/01/05 10:43:11;;;;;;;11.57;6.50;;;;;;;8.93;nan;100186.13;5007564;28;20500;-70
2024/01/05 10:45:38;;;;;;;9.55;5.50;;;;;;;8.94;nan;100182.50;4993264;28;20034;-70
2024/01/05 10:48:08;;;;;;;13.35;6.43;;;;;;;8.89;nan;100167.41;5009636;28;20025;-70
2024/01/05 10:50:37;;;;;;;11.65;6.38;;;;;;;8.99;nan;100174.75;4991683;28;20037;-71
2024/01/05 10:53:04;;;;;;;31.27;12.45;;;;;;;9.09;nan;100167.16;5010534;28;20026;-70
2024/01/05 10:55:32;;;;;;;19.35;8.50;;;;;;;9.18;nan;100157.16;4990353;28;20032;-70
2024/01/05 10:57:57;;;;;;;12.38;6.22;;;;;;;9.26;nan;100154.22;4992890;28;20057;-71
2024/01/05 11:00:24;;;;;;;10.30;5.65;;;;;;;9.34;nan;100153.94;5007681;28;20061;-70
2024/01/05 11:02:52;;;;;;;12.73;5.72;;;;;;;9.51;nan;100164.63;4991862;28;20050;-75
2024/01/05 11:05:20;;;;;;;10.10;4.90;;;;;;;9.47;nan;100147.69;5009506;28;20033;-70
2024/01/05 11:07:48;;;;;;;10.98;5.28;;;;;;;9.56;nan;100154.22;4993381;28;20110;-70
2024/01/05 11:10:22;;;;;;;9.02;5.13;;;;;;;9.63;nan;100163.84;5009554;28;20780;-71
2024/01/05 11:12:59;;;;;;;8.18;4.43;;;;;;;9.68;nan;100177.94;5007616;28;20080;-71
2024/01/05 11:15:31;;;;;;;10.95;4.47;;;;;;;9.72;nan;100170.38;5008539;28;20496;-70
2024/01/05 11:17:59;;;;;;;12.13;4.53;;;;;;;9.76;nan;100169.69;4989619;28;20030;-71
2024/01/05 11:20:54;;;;;;;10.05;4.65;;;;;;;9.81;nan;100169.03;5006325;28;20244;-70
2024/01/05 11:23:22;;;;;;;8.68;4.25;;;;;;;9.78;nan;100154.50;5004473;28;20133;-71
2024/01/05 11:25:48;;;;;;;10.88;4.60;;;;;;;9.87;nan;100156.81;5008939;28;20040;-71
2024/01/05 11:28:36;;;;;;;10.18;4.13;;;;;;;9.93;nan;100164.59;5009295;28;20021;-71
2024/01/05 11:31:02;;;;;;;10.98;4.25;;;;;;;9.88;nan;100153.16;4985284;28;20032;-70
2024/01/05 11:33:48;;;;;;;8.85;4.50;;;;;;;10.01;nan;100180.06;5007246;28;20030;-70
2024/01/05 11:36:48;;;;;;;8.43;4.93;;;;;;;10.02;nan;100184.28;5007589;28;20040;-70
2024/01/05 11:39:38;;;;;;;7.43;4.05;;;;;;;10.05;nan;100187.50;5005086;28;20397;-70
2024/01/05 11:42:04;;;;;;;7.68;3.92;;;;;;;10.01;nan;100168.75;4998128;28;20038;-70
2024/01/05 11:44:34;;;;;;;10.43;4.32;;;;;;;9.99;nan;100161.06;5010236;28;20484;-69
2024/01/05 11:47:01;;;;;;;6.78;4.18;;;;;;;10.08;nan;100163.34;5011741;28;20021;-70